Yorktown Express — WDD6127 — position and weather

sailwx.info

Track history (hours):
 
Tides and Currents Weather Stations Pressure Air Temp Water Temp Dewpoint Dewpoint Depression Visibility Wind Speed Wind Dir Waves Ship Positions

Yorktown Express

Owner: Marine Transport Management, Inc., Jacksonville, FL. More information available from US FCC via Universal Licensing System and Coast Guard Vessel Documentation Center.

Last reported at 2014-Nov-25 16:19 UTC. Time now 2014-Nov-27 07:52 UTC.
Position N 34°24' W 075°53'.

Type: Ship. MMSI: 367168650.

Date/timePositionNaut miles runAvg speedWind from/ knotsBaromVisibWave heightAir tempDewpointWater temp
2014-Nov-25 16:19N 34°24' W 075°53'1619.6
2014-Nov-25 15:29N 34°11' W 076°06'2321.5
2014-Nov-25 14:23N 33°54' W 076°25'2121.7
2014-Nov-25 13:26N 33°39' W 076°42'23216.7
2014-Nov-24 23:33N 32°02' W 080°53'9 8.7
2014-Nov-24 22:33N 32°05' W 081°02'5 5.4
2014-Nov-24 21:33N 32°07' W 081°08'0 0.0
2014-Nov-24 19:21N 32°07' W 081°08'0 0.0
2014-Nov-24 15:09N 32°07' W 081°08'0 0.0
2014-Nov-24 14:18N 32°07' W 081°08'0 0.0
2014-Nov-24 11:27N 32°07' W 081°08'0 0.0
2014-Nov-24 10:28N 32°07' W 081°08'0 0.0
2014-Nov-24 08:21N 32°07' W 081°08'0 0.0
2014-Nov-24 07:30N 32°07' W 081°08'0 0.0
2014-Nov-24 06:15N 32°07' W 081°08'0 0.0
2014-Nov-24 05:33N 32°07' W 081°08'0 0.0
2014-Nov-24 04:27N 32°07' W 081°08'0 0.0
2014-Nov-24 03:34N 32°07' W 081°08'0 0.0
2014-Nov-24 02:33N 32°07' W 081°08'0 0.0
2014-Nov-24 01:33N 32°07' W 081°08'0 0.0
2014-Nov-24 00:33N 32°07' W 081°08'0 0.0
2014-Nov-23 23:33N 32°07' W 081°08'0 0.0
2014-Nov-23 22:09N 32°07' W 081°08'0 0.0
2014-Nov-23 21:27N 32°07' W 081°08'0 0.0
2014-Nov-23 20:18N 32°07' W 081°08'0 0.0
2014-Nov-23 19:28N 32°07' W 081°08'1 0.4
2014-Nov-23 17:32N 32°08' W 081°08'5 4.7
2014-Nov-23 16:30N 32°05' W 081°04'31018.2
2014-Nov-22 23:30N 27°03' W 079°44'2323.2
2014-Nov-22 22:31N 26°40' W 079°46'2222.9
2014-Nov-22 21:33N 26°18' W 079°48'2322.9
2014-Nov-22 20:33N 25°56' W 079°49'2323.0
2014-Nov-22 19:32N 25°32' W 079°54'3322.5
2014-Nov-22 18:05N 25°02' W 080°07'81618.3
2014-Nov-20 21:24N 29°18' W 094°38'1012.0
2014-Nov-20 20:33N 29°22' W 094°48'1312.9
2014-Nov-20 19:33N 29°33' W 094°55'6 5.6
2014-Nov-20 18:31N 29°37' W 095°00'0 0.0
2014-Nov-20 17:31N 29°37' W 095°00'0 0.0
2014-Nov-20 16:31N 29°37' W 095°00'0 0.0
2014-Nov-20 15:31N 29°37' W 095°00'0 0.0
2014-Nov-20 14:31N 29°37' W 095°00'0 0.0
2014-Nov-20 13:31N 29°37' W 095°00'0 0.0
2014-Nov-20 12:31N 29°37' W 095°00'0 0.0
2014-Nov-20 11:31N 29°37' W 095°00'0 0.0
2014-Nov-20 10:31N 29°37' W 095°00'0 0.0
2014-Nov-20 09:31N 29°37' W 095°00'0 0.0
2014-Nov-20 08:31N 29°37' W 095°00'0 0.0
2014-Nov-20 07:31N 29°37' W 095°00'0 0.0
2014-Nov-20 06:31N 29°37' W 095°00'0 0.4
2014-Nov-20 05:33N 29°37' W 095°01'4 3.9
2014-Nov-20 04:33N 29°40' W 094°59'1 1.4
2014-Nov-20 03:33N 29°41' W 094°60'0 0.0
2014-Nov-20 02:32N 29°41' W 094°60'0 0.0
2014-Nov-20 01:32N 29°41' W 094°60'0 0.0
2014-Nov-20 00:32N 29°41' W 094°60'0 0.0
2014-Nov-19 23:32N 29°41' W 094°60'0 0.0
2014-Nov-19 22:32N 29°41' W 094°60'0 0.0
2014-Nov-19 21:32N 29°41' W 094°60'0 0.0
2014-Nov-19 20:32N 29°41' W 094°60'0 0.0
2014-Nov-19 19:32N 29°41' W 094°60'0 0.0
2014-Nov-19 18:32N 29°41' W 094°60'0 0.0
2014-Nov-19 17:32N 29°41' W 094°60'0 0.0
2014-Nov-19 16:32N 29°41' W 094°60'0 0.0
2014-Nov-19 15:32N 29°41' W 094°60'0 0.0
2014-Nov-19 14:32N 29°41' W 094°60'0 0.0
2014-Nov-19 13:32N 29°41' W 094°60'0 0.0
2014-Nov-19 12:32N 29°41' W 094°60'0 0.0
2014-Nov-19 11:32N 29°41' W 094°60'0 0.0
2014-Nov-19 10:32N 29°41' W 094°60'0 0.0
2014-Nov-19 09:32N 29°41' W 094°60'0 0.0
2014-Nov-19 08:32N 29°41' W 094°60'0 0.0
2014-Nov-19 07:32N 29°41' W 094°60'0 0.0
2014-Nov-19 06:32N 29°41' W 094°60'0 0.0
2014-Nov-19 05:32N 29°41' W 094°60'0 0.0
2014-Nov-19 04:32N 29°41' W 094°60'0 0.0
2014-Nov-19 03:32N 29°41' W 094°60'0 0.0
2014-Nov-19 02:32N 29°41' W 094°60'0 0.0
2014-Nov-19 01:32N 29°41' W 094°60'0 0.0
2014-Nov-19 00:32N 29°41' W 094°60'0 0.0
2014-Nov-18 23:32N 29°41' W 094°60'0 0.0
2014-Nov-18 22:32N 29°41' W 094°60'0 0.0
2014-Nov-18 21:32N 29°41' W 094°60'0 0.0
2014-Nov-18 20:32N 29°41' W 094°60'0 0.2
2014-Nov-18 19:33N 29°41' W 095°00'8 8.0
2014-Nov-18 18:34N 29°34' W 094°55'1514.1
2014-Nov-18 17:30N 29°21' W 094°47'63815.8
2014-Nov-17 01:06N 24°47' W 084°01'1920.2
2014-Nov-17 00:11N 24°41' W 083°41'13819.8
2014-Nov-16 17:12N 24°31' W 081°10'8416.6
2014-Nov-16 12:08N 25°27' W 080°01'1016.7
2014-Nov-16 11:33N 25°36' W 079°60'1817.6
2014-Nov-16 10:33N 25°54' W 080°01'1312.8
2014-Nov-16 09:33N 26°06' W 080°07'1 1.1
2014-Nov-16 08:25N 26°04' W 080°07'0 0.0
2014-Nov-16 07:25N 26°04' W 080°07'0 0.0
2014-Nov-16 06:28N 26°04' W 080°07'0 0.0
2014-Nov-16 05:28N 26°04' W 080°07'0 0.0
2014-Nov-16 04:31N 26°04' W 080°07'0 0.0
2014-Nov-16 03:31N 26°04' W 080°07'0 0.0
2014-Nov-16 02:31N 26°04' W 080°07'0 0.0
2014-Nov-16 01:31N 26°04' W 080°07'2 1.9
2014-Nov-16 00:33N 26°06' W 080°06'4 4.1
2014-Nov-15 23:33N 26°06' W 080°01'4 3.7
2014-Nov-15 22:33N 26°09' W 079°59'1716.9
2014-Nov-15 21:33N 26°26' W 079°57'1717.2
2014-Nov-15 20:33N 26°43' W 079°57'1716.8
2014-Nov-15 19:33N 26°60' W 079°57'  
Track history (hours):
 
Tides and Currents Weather Stations Pressure Air Temp Water Temp Dewpoint Dewpoint Depression Visibility Wind Speed Wind Dir Waves Ship Positions

Yorktown Express

Owner: Marine Transport Management, Inc., Jacksonville, FL. More information available from US FCC via Universal Licensing System and Coast Guard Vessel Documentation Center.

Last reported at 2014-Nov-25 16:19 UTC. Time now 2014-Nov-27 07:52 UTC.
Position N 34°24' W 075°53'.

Type: Ship. MMSI: 367168650.

Date/timePositionNaut miles runAvg speedWind from/ knotsBaromVisibWave heightAir tempDewpointWater temp
2014-Nov-25 16:19N 34°24' W 075°53'1619.6
2014-Nov-25 15:29N 34°11' W 076°06'2321.5
2014-Nov-25 14:23N 33°54' W 076°25'2121.7
2014-Nov-25 13:26N 33°39' W 076°42'23216.7
2014-Nov-24 23:33N 32°02' W 080°53'9 8.7
2014-Nov-24 22:33N 32°05' W 081°02'5 5.4
2014-Nov-24 21:33N 32°07' W 081°08'0 0.0
2014-Nov-24 19:21N 32°07' W 081°08'0 0.0
2014-Nov-24 15:09N 32°07' W 081°08'0 0.0
2014-Nov-24 14:18N 32°07' W 081°08'0 0.0
2014-Nov-24 11:27N 32°07' W 081°08'0 0.0
2014-Nov-24 10:28N 32°07' W 081°08'0 0.0
2014-Nov-24 08:21N 32°07' W 081°08'0 0.0
2014-Nov-24 07:30N 32°07' W 081°08'0 0.0
2014-Nov-24 06:15N 32°07' W 081°08'0 0.0
2014-Nov-24 05:33N 32°07' W 081°08'0 0.0
2014-Nov-24 04:27N 32°07' W 081°08'0 0.0
2014-Nov-24 03:34N 32°07' W 081°08'0 0.0
2014-Nov-24 02:33N 32°07' W 081°08'0 0.0
2014-Nov-24 01:33N 32°07' W 081°08'0 0.0
2014-Nov-24 00:33N 32°07' W 081°08'0 0.0
2014-Nov-23 23:33N 32°07' W 081°08'0 0.0
2014-Nov-23 22:09N 32°07' W 081°08'0 0.0
2014-Nov-23 21:27N 32°07' W 081°08'0 0.0
2014-Nov-23 20:18N 32°07' W 081°08'0 0.0
2014-Nov-23 19:28N 32°07' W 081°08'1 0.4
2014-Nov-23 17:32N 32°08' W 081°08'5 4.7
2014-Nov-23 16:30N 32°05' W 081°04'31018.2
2014-Nov-22 23:30N 27°03' W 079°44'2323.2
2014-Nov-22 22:31N 26°40' W 079°46'2222.9
2014-Nov-22 21:33N 26°18' W 079°48'2322.9
2014-Nov-22 20:33N 25°56' W 079°49'2323.0
2014-Nov-22 19:32N 25°32' W 079°54'3322.5
2014-Nov-22 18:05N 25°02' W 080°07'81618.3
2014-Nov-20 21:24N 29°18' W 094°38'1012.0
2014-Nov-20 20:33N 29°22' W 094°48'1312.9
2014-Nov-20 19:33N 29°33' W 094°55'6 5.6
2014-Nov-20 18:31N 29°37' W 095°00'0 0.0
2014-Nov-20 17:31N 29°37' W 095°00'0 0.0
2014-Nov-20 16:31N 29°37' W 095°00'0 0.0
2014-Nov-20 15:31N 29°37' W 095°00'0 0.0
2014-Nov-20 14:31N 29°37' W 095°00'0 0.0
2014-Nov-20 13:31N 29°37' W 095°00'0 0.0
2014-Nov-20 12:31N 29°37' W 095°00'0 0.0
2014-Nov-20 11:31N 29°37' W 095°00'0 0.0
2014-Nov-20 10:31N 29°37' W 095°00'0 0.0
2014-Nov-20 09:31N 29°37' W 095°00'0 0.0
2014-Nov-20 08:31N 29°37' W 095°00'0 0.0
2014-Nov-20 07:31N 29°37' W 095°00'0 0.0
2014-Nov-20 06:31N 29°37' W 095°00'0 0.4
2014-Nov-20 05:33N 29°37' W 095°01'4 3.9
2014-Nov-20 04:33N 29°40' W 094°59'1 1.4
2014-Nov-20 03:33N 29°41' W 094°60'0 0.0
2014-Nov-20 02:32N 29°41' W 094°60'0 0.0
2014-Nov-20 01:32N 29°41' W 094°60'0 0.0
2014-Nov-20 00:32N 29°41' W 094°60'0 0.0
2014-Nov-19 23:32N 29°41' W 094°60'0 0.0
2014-Nov-19 22:32N 29°41' W 094°60'0 0.0
2014-Nov-19 21:32N 29°41' W 094°60'0 0.0
2014-Nov-19 20:32N 29°41' W 094°60'0 0.0
2014-Nov-19 19:32N 29°41' W 094°60'0 0.0
2014-Nov-19 18:32N 29°41' W 094°60'0 0.0
2014-Nov-19 17:32N 29°41' W 094°60'0 0.0
2014-Nov-19 16:32N 29°41' W 094°60'0 0.0
2014-Nov-19 15:32N 29°41' W 094°60'0 0.0
2014-Nov-19 14:32N 29°41' W 094°60'0 0.0
2014-Nov-19 13:32N 29°41' W 094°60'0 0.0
2014-Nov-19 12:32N 29°41' W 094°60'0 0.0
2014-Nov-19 11:32N 29°41' W 094°60'0 0.0
2014-Nov-19 10:32N 29°41' W 094°60'0 0.0
2014-Nov-19 09:32N 29°41' W 094°60'0 0.0
2014-Nov-19 08:32N 29°41' W 094°60'0 0.0
2014-Nov-19 07:32N 29°41' W 094°60'0 0.0
2014-Nov-19 06:32N 29°41' W 094°60'0 0.0
2014-Nov-19 05:32N 29°41' W 094°60'0 0.0
2014-Nov-19 04:32N 29°41' W 094°60'0 0.0
2014-Nov-19 03:32N 29°41' W 094°60'0 0.0
2014-Nov-19 02:32N 29°41' W 094°60'0 0.0
2014-Nov-19 01:32N 29°41' W 094°60'0 0.0
2014-Nov-19 00:32N 29°41' W 094°60'0 0.0
2014-Nov-18 23:32N 29°41' W 094°60'0 0.0
2014-Nov-18 22:32N 29°41' W 094°60'0 0.0
2014-Nov-18 21:32N 29°41' W 094°60'0 0.0
2014-Nov-18 20:32N 29°41' W 094°60'0 0.2
2014-Nov-18 19:33N 29°41' W 095°00'8 8.0
2014-Nov-18 18:34N 29°34' W 094°55'1514.1
2014-Nov-18 17:30N 29°21' W 094°47'63815.8
2014-Nov-17 01:06N 24°47' W 084°01'1920.2
2014-Nov-17 00:11N 24°41' W 083°41'13819.8
2014-Nov-16 17:12N 24°31' W 081°10'8416.6
2014-Nov-16 12:08N 25°27' W 080°01'1016.7
2014-Nov-16 11:33N 25°36' W 079°60'1817.6
2014-Nov-16 10:33N 25°54' W 080°01'1312.8
2014-Nov-16 09:33N 26°06' W 080°07'1 1.1
2014-Nov-16 08:25N 26°04' W 080°07'0 0.0
2014-Nov-16 07:25N 26°04' W 080°07'0 0.0
2014-Nov-16 06:28N 26°04' W 080°07'0 0.0
2014-Nov-16 05:28N 26°04' W 080°07'0 0.0
2014-Nov-16 04:31N 26°04' W 080°07'0 0.0
2014-Nov-16 03:31N 26°04' W 080°07'0 0.0
2014-Nov-16 02:31N 26°04' W 080°07'0 0.0
2014-Nov-16 01:31N 26°04' W 080°07'2 1.9
2014-Nov-16 00:33N 26°06' W 080°06'4 4.1
2014-Nov-15 23:33N 26°06' W 080°01'4 3.7
2014-Nov-15 22:33N 26°09' W 079°59'1716.9
2014-Nov-15 21:33N 26°26' W 079°57'1717.2
2014-Nov-15 20:33N 26°43' W 079°57'1716.8
2014-Nov-15 19:33N 26°60' W 079°57'  

Dump ship's entire track history